Terminal Aerodrome Forecast
Issued by NWS

Home | Current Version | Previous Version | Text Only | Print | Product List | Glossary On
Versions: 1 2 3 4 5 6 7 8 9 10 11 12 13 14 15 16 17 18 19 20 21 22 23 24 25 26 27 28 29 30 31 32 33 34 35 36 37 38 39 40 41
000
FTUS46 KOTX 230538
TAFCOE
TAF
KCOE 230538Z 2306/2406 00000KT 1/2SM FZFG VV002
     FM231000 02004KT 4SM BR SCT002
     FM231900 03006KT P6SM SCT016
     FM232100 05006KT P6SM FEW250
     FM240500 33003KT 6SM BCFG FEW001=

USA.gov is the U.S. government's official web portal to all federal, state and local government web resources and services.